createdAt,value
2023-01-27T15:15:53.597Z,24.80
2023-01-27T15:18:22.372Z,26.10
2023-01-27T15:21:08.230Z,23.70
2023-01-27T15:23:50.645Z,18.20
2023-01-27T15:26:21.746Z,19.60
2023-01-27T15:28:50.273Z,19.40
2023-01-27T15:31:18.747Z,19.50
2023-01-27T15:34:12.417Z,19.50
2023-01-27T15:37:01.732Z,41.30
2023-01-27T15:39:40.816Z,21.50
2023-01-27T15:42:13.177Z,19.30
2023-01-27T15:44:59.069Z,18.70
2023-01-27T15:47:29.600Z,19.40
2023-01-27T15:50:26.365Z,20.50
2023-01-27T15:53:03.687Z,16.60
2023-01-27T15:55:35.897Z,18.50
2023-01-27T15:58:07.041Z,16.80
2023-01-27T16:00:38.074Z,16.60
2023-01-27T16:03:19.994Z,15.30
2023-01-27T16:05:49.779Z,16.80
2023-01-27T16:08:18.260Z,14.80
2023-01-27T16:10:46.801Z,14.70
2023-01-27T16:13:27.790Z,14.80
2023-01-27T16:16:18.141Z,16.10
2023-01-27T16:18:53.366Z,15.70
2023-01-27T16:21:34.507Z,17.20
2023-01-27T16:24:25.762Z,14.50
2023-01-27T16:26:56.828Z,14.60
2023-01-27T16:29:45.551Z,15.70
2023-01-27T16:32:17.438Z,14.70
2023-01-27T16:35:04.483Z,15.50
2023-01-27T16:37:35.111Z,16.60
2023-01-27T16:40:09.379Z,16.70
2023-01-27T16:42:55.501Z,14.50
2023-01-27T16:45:29.268Z,16.00
2023-01-27T16:47:59.184Z,16.90
2023-01-27T16:50:38.841Z,18.50
2023-01-27T16:53:13.046Z,17.40
2023-01-27T16:55:41.524Z,18.90
2023-01-27T16:58:20.835Z,18.70
2023-01-27T17:00:52.503Z,19.90
2023-01-27T17:03:28.310Z,20.00
2023-01-27T17:05:57.115Z,21.60
2023-01-27T17:08:27.607Z,21.70
2023-01-27T17:11:05.849Z,20.20
2023-01-27T17:13:36.545Z,21.80
2023-01-27T17:16:06.748Z,20.80
2023-01-27T17:18:50.732Z,21.00
2023-01-27T17:21:32.135Z,20.20
2023-01-27T17:24:12.829Z,20.20
2023-01-27T17:26:43.120Z,20.20
2023-01-27T17:29:19.500Z,19.10
2023-01-27T17:31:48.012Z,22.10
2023-01-27T17:34:18.942Z,19.30
2023-01-27T17:37:16.764Z,20.10
2023-01-27T17:39:45.941Z,19.90
2023-01-27T17:42:16.927Z,19.00
2023-01-27T17:44:46.168Z,19.70
2023-01-27T17:47:19.213Z,19.30
2023-01-27T17:49:50.708Z,23.60
2023-01-27T17:52:22.548Z,21.60
2023-01-27T17:54:52.501Z,19.80
2023-01-27T17:57:22.430Z,21.80
2023-01-27T18:00:07.164Z,18.80
2023-01-27T18:02:50.953Z,19.50
2023-01-27T18:05:22.463Z,20.40
2023-01-27T18:07:51.020Z,20.00
2023-01-27T18:10:26.893Z,17.00
2023-01-27T18:12:55.986Z,16.10
2023-01-27T18:15:42.374Z,16.30
2023-01-27T18:18:23.709Z,14.90
2023-01-27T18:21:04.686Z,18.60
2023-01-27T18:23:38.118Z,17.40
2023-01-27T18:26:07.132Z,18.30
2023-01-27T18:28:36.887Z,16.30
2023-01-27T18:31:19.285Z,16.40
2023-01-27T18:34:08.068Z,16.10
2023-01-27T18:36:37.616Z,15.30
2023-01-27T18:39:25.480Z,16.50
2023-01-27T18:41:54.980Z,17.90
2023-01-27T18:44:44.530Z,15.20
2023-01-27T18:47:19.639Z,15.70
2023-01-27T18:50:12.451Z,16.90
2023-01-27T18:52:42.446Z,16.10
2023-01-27T18:55:10.926Z,16.40
2023-01-27T18:57:39.805Z,15.60
2023-01-27T19:00:10.813Z,18.30
2023-01-27T19:02:39.375Z,17.20
2023-01-27T19:05:24.159Z,16.20
2023-01-27T19:07:52.469Z,15.20
2023-01-27T19:10:25.967Z,14.80
2023-01-27T19:12:56.203Z,16.00
2023-01-27T19:15:25.722Z,15.50
2023-01-27T19:17:56.038Z,15.70
2023-01-27T19:20:26.707Z,14.70
2023-01-27T19:22:57.207Z,15.70
2023-01-27T19:25:27.583Z,16.30
2023-01-27T19:27:57.495Z,15.50
2023-01-27T19:30:36.442Z,16.60
2023-01-27T19:33:19.497Z,15.60
2023-01-27T19:35:55.260Z,16.30
2023-01-27T19:38:23.912Z,16.50
2023-01-27T19:40:53.003Z,16.50
2023-01-27T19:43:22.100Z,16.80
2023-01-27T19:45:52.174Z,16.70
2023-01-27T19:48:22.666Z,17.10
2023-01-27T19:50:51.598Z,17.20
2023-01-27T19:53:24.828Z,17.90
2023-01-27T19:55:57.462Z,17.00
2023-01-27T19:58:27.385Z,16.50
2023-01-27T20:00:58.381Z,16.40
2023-01-27T20:03:26.815Z,19.10
2023-01-27T20:05:55.817Z,17.70
2023-01-27T20:08:24.424Z,17.90
2023-01-27T20:10:53.723Z,16.70
2023-01-27T20:13:22.548Z,16.20
2023-01-27T20:15:52.748Z,18.10
2023-01-27T20:18:23.857Z,14.90
2023-01-27T20:20:52.585Z,15.60
2023-01-27T20:23:21.301Z,16.70
2023-01-27T20:25:50.345Z,16.60
2023-01-27T20:28:19.343Z,17.00
2023-01-27T20:30:48.480Z,19.80
2023-01-27T20:33:17.893Z,17.40
2023-01-27T20:35:46.839Z,17.20
2023-01-27T20:38:15.308Z,16.00
2023-01-27T20:40:43.871Z,15.70
2023-01-27T20:43:13.461Z,15.30
2023-01-27T20:45:42.947Z,17.10
2023-01-27T20:48:11.692Z,16.00
2023-01-27T20:50:41.621Z,16.00
2023-01-27T20:53:10.499Z,17.30
2023-01-27T20:55:39.288Z,16.40
2023-01-27T20:58:07.974Z,16.10
2023-01-27T21:00:36.965Z,15.00
2023-01-27T21:03:05.557Z,15.80
2023-01-27T21:05:35.567Z,17.00
2023-01-27T21:08:04.418Z,15.10
2023-01-27T21:10:33.247Z,15.30
2023-01-27T21:13:22.309Z,16.20
2023-01-27T21:15:51.609Z,15.60
2023-01-27T21:18:20.293Z,14.70
2023-01-27T21:20:54.681Z,16.40
2023-01-27T21:23:24.490Z,15.60
2023-01-27T21:25:52.835Z,16.60
2023-01-27T21:28:21.441Z,17.50
2023-01-27T21:30:50.091Z,16.20
2023-01-27T21:33:18.704Z,12.80
2023-01-27T21:35:54.695Z,14.90
2023-01-27T21:38:23.506Z,14.50
2023-01-27T21:40:53.425Z,16.20
2023-01-27T21:43:55.386Z,15.90
2023-01-27T21:46:24.249Z,14.00
2023-01-27T21:48:52.767Z,15.10
2023-01-27T21:51:21.717Z,14.30
2023-01-27T21:53:50.341Z,15.10
2023-01-27T21:56:18.919Z,14.50
2023-01-27T21:58:47.711Z,15.30
2023-01-27T22:02:11.564Z,14.30
2023-01-27T22:04:41.523Z,15.50
2023-01-27T22:07:14.275Z,14.50
2023-01-27T22:09:43.007Z,13.40
2023-01-27T22:12:13.875Z,14.00
2023-01-27T22:14:43.068Z,14.30
2023-01-27T22:17:11.653Z,15.50
2023-01-27T22:19:40.145Z,15.50
2023-01-27T22:22:10.295Z,13.40
2023-01-27T22:24:41.804Z,14.90
2023-01-27T22:27:10.284Z,14.60
2023-01-27T22:29:39.462Z,14.60
2023-01-27T22:32:11.909Z,13.60
2023-01-27T22:34:40.352Z,15.80
2023-01-27T22:37:08.946Z,15.60
2023-01-27T22:39:38.390Z,14.00
2023-01-27T22:42:07.137Z,12.90
2023-01-27T22:44:36.340Z,12.50
2023-01-27T22:47:05.953Z,13.20
2023-01-27T22:49:35.357Z,10.90
2023-01-27T22:52:04.221Z,12.00
2023-01-27T22:54:33.003Z,11.40
2023-01-27T22:57:01.688Z,12.50
2023-01-27T22:59:30.276Z,13.70
2023-01-27T23:01:58.857Z,12.60
2023-01-27T23:04:27.539Z,12.30
2023-01-27T23:06:56.337Z,12.10
2023-01-27T23:09:24.922Z,11.80
2023-01-27T23:11:53.717Z,11.50
2023-01-27T23:14:22.463Z,11.10
2023-01-27T23:16:53.152Z,10.20
2023-01-27T23:19:22.267Z,9.10
2023-01-27T23:21:50.854Z,12.10
2023-01-27T23:24:19.287Z,9.40
2023-01-27T23:26:47.965Z,11.30
2023-01-27T23:29:24.567Z,11.60
2023-01-27T23:31:53.812Z,11.70
2023-01-27T23:34:22.752Z,11.60
2023-01-27T23:36:51.537Z,11.10
2023-01-27T23:39:20.249Z,12.40
2023-01-27T23:41:49.024Z,11.80
2023-01-27T23:44:17.720Z,12.20
2023-01-27T23:46:46.241Z,11.30
2023-01-27T23:49:15.670Z,10.90
2023-01-27T23:51:44.308Z,11.50
2023-01-27T23:54:13.343Z,11.70
2023-01-27T23:56:41.825Z,10.70
2023-01-27T23:59:12.559Z,11.60
